createdAt,value
2019-03-17T17:07:18.478Z,16.25
2019-03-17T17:14:56.082Z,9.75
2019-03-17T17:20:39.473Z,8.60
2019-03-17T17:27:36.329Z,32.53
2019-03-17T17:30:12.500Z,30.70
2019-03-17T17:32:42.815Z,33.40
2019-03-17T17:35:13.545Z,35.43
2019-03-17T17:37:43.770Z,39.18
2019-03-17T17:40:19.583Z,35.80
2019-03-17T17:42:49.572Z,33.53
2019-03-17T17:45:40.705Z,37.70
2019-03-17T17:48:10.974Z,39.70
2019-03-17T17:50:44.137Z,37.60
2019-03-17T17:53:14.237Z,38.00
2019-03-17T17:55:44.799Z,39.60
2019-03-17T17:58:14.866Z,42.55
2019-03-17T18:00:46.940Z,34.58
2019-03-17T18:03:17.495Z,44.20
2019-03-17T18:05:47.991Z,41.37
2019-03-17T18:08:18.054Z,42.17
2019-03-17T18:10:48.232Z,47.38
2019-03-17T18:13:18.243Z,53.02
2019-03-17T18:15:48.533Z,58.25
2019-03-17T18:18:18.755Z,42.55
2019-03-17T18:20:49.183Z,46.60
2019-03-17T18:23:19.512Z,45.17
2019-03-17T18:25:49.729Z,37.80
2019-03-17T18:28:19.950Z,34.40
2019-03-17T18:30:50.171Z,43.20
2019-03-17T18:33:20.293Z,39.75
2019-03-17T18:35:52.151Z,37.60
2019-03-17T18:41:11.645Z,45.58
2019-03-17T18:43:41.862Z,47.98
2019-03-17T18:46:12.291Z,42.10
2019-03-17T18:48:42.306Z,44.93
2019-03-17T18:51:12.596Z,42.10
2019-03-17T18:53:42.954Z,43.00
2019-03-17T18:56:13.176Z,52.03
2019-03-17T18:58:43.500Z,41.88
2019-03-17T19:01:13.827Z,43.58
2019-03-17T19:03:44.045Z,50.25
2019-03-17T19:06:14.165Z,42.73
2019-03-17T19:08:44.489Z,46.68
2019-03-17T19:11:15.122Z,44.20
2019-03-17T19:13:45.445Z,47.67
2019-03-17T19:16:15.462Z,42.62
2019-03-17T19:18:45.583Z,51.75
2019-03-17T19:21:17.543Z,45.35
2019-03-17T19:23:47.773Z,51.15
2019-03-17T19:26:17.889Z,42.48
2019-03-17T19:28:48.006Z,48.95
2019-03-17T19:31:18.230Z,46.08
2019-03-17T19:33:48.448Z,39.88
2019-03-17T19:36:18.688Z,40.63
2019-03-17T19:38:48.793Z,40.95
2019-03-17T19:41:22.086Z,36.83
2019-03-17T19:43:52.210Z,35.38
2019-03-17T19:46:22.835Z,38.95
2019-03-17T19:48:53.059Z,34.20
2019-03-17T19:51:23.591Z,33.13
2019-03-17T19:53:53.919Z,41.18
2019-03-17T19:56:24.035Z,30.62
2019-03-17T19:58:54.357Z,32.20
2019-03-17T20:01:24.681Z,39.00
2019-03-17T20:03:55.129Z,54.10
2019-03-17T20:06:25.429Z,44.58
2019-03-17T20:08:56.636Z,30.23
2019-03-17T20:11:28.330Z,38.33
2019-03-17T20:14:00.803Z,31.73
2019-03-17T20:16:32.356Z,28.42
2019-03-17T20:19:02.480Z,33.23
2019-03-17T20:21:33.106Z,29.23
2019-03-17T20:24:23.531Z,35.03
2019-03-17T20:26:53.831Z,32.65
2019-03-17T20:29:29.011Z,34.53
2019-03-17T20:32:00.514Z,30.45
2019-03-17T20:34:30.840Z,33.83
2019-03-17T20:37:01.566Z,28.77
2019-03-17T20:39:32.204Z,25.48
2019-03-17T20:42:04.474Z,30.55
2019-03-17T20:44:34.905Z,22.93
2019-03-17T20:47:06.145Z,26.40
2019-03-17T20:49:39.324Z,29.80
2019-03-17T20:52:09.257Z,29.90
2019-03-17T20:54:40.908Z,20.95
2019-03-17T20:57:11.231Z,22.42
2019-03-17T20:59:41.351Z,27.93
2019-03-17T21:02:13.211Z,26.00
2019-03-17T21:04:43.439Z,27.15
2019-03-17T21:07:15.191Z,25.35
2019-03-17T21:09:45.514Z,19.70
2019-03-17T21:12:15.634Z,21.17
2019-03-17T21:14:45.753Z,24.12
2019-03-17T21:17:15.975Z,23.10
2019-03-17T21:19:47.323Z,20.40
2019-03-17T21:22:17.752Z,26.37
2019-03-17T21:24:47.975Z,18.10
2019-03-17T21:27:18.193Z,22.70
2019-03-17T21:29:49.965Z,22.67
2019-03-17T21:32:19.971Z,21.25
2019-03-17T21:34:50.292Z,25.37
2019-03-17T21:37:20.310Z,21.40
2019-03-17T21:39:50.646Z,21.95
2019-03-17T21:42:24.337Z,22.42
2019-03-17T21:44:54.564Z,22.25
2019-03-17T21:47:24.885Z,17.82
2019-03-17T21:49:57.769Z,19.55
2019-03-17T21:52:32.292Z,20.72
2019-03-17T21:55:02.515Z,21.48
2019-03-17T21:57:33.514Z,31.35
2019-03-17T22:00:04.385Z,25.82
2019-03-17T22:02:34.519Z,17.20
2019-03-17T22:05:04.628Z,21.50
2019-03-17T22:07:34.850Z,19.23
2019-03-17T22:10:07.899Z,16.40
2019-03-17T22:12:38.569Z,17.20
2019-03-17T22:15:11.862Z,20.08
2019-03-17T22:17:42.234Z,19.87
2019-03-17T22:20:13.421Z,22.95
2019-03-17T22:22:46.096Z,22.07
2019-03-17T22:25:16.962Z,17.55
2019-03-17T22:28:08.621Z,18.67
2019-03-17T22:30:36.029Z,16.48
2019-03-17T22:33:06.150Z,21.25
2019-03-17T22:35:36.370Z,21.73
2019-03-17T22:38:06.694Z,18.65
2019-03-17T22:40:38.554Z,23.47
2019-03-17T22:43:08.572Z,15.32
2019-03-17T22:45:38.590Z,18.12
2019-03-17T22:48:13.008Z,20.60
2019-03-17T22:50:43.332Z,19.75
2019-03-17T22:53:13.554Z,21.20
2019-03-17T22:55:49.101Z,19.67
2019-03-17T22:58:21.750Z,17.82
2019-03-17T23:00:52.003Z,16.50
2019-03-17T23:03:25.212Z,23.65
2019-03-17T23:05:55.521Z,18.07
2019-03-17T23:08:25.641Z,16.80
2019-03-17T23:10:56.152Z,17.85
2019-03-17T23:13:26.285Z,19.00
2019-03-17T23:15:56.507Z,20.75
2019-03-17T23:18:26.626Z,16.05
2019-03-17T23:20:56.848Z,18.20
2019-03-17T23:23:26.968Z,21.85
2019-03-17T23:26:16.447Z,18.60
2019-03-17T23:28:47.174Z,21.48
2019-03-17T23:31:17.398Z,16.25
2019-03-17T23:33:47.825Z,14.38
2019-03-17T23:36:18.146Z,17.73
2019-03-17T23:38:48.266Z,18.62
2019-03-17T23:41:18.901Z,18.37
2019-03-17T23:43:51.781Z,18.30
2019-03-17T23:46:21.902Z,17.27
2019-03-17T23:48:53.762Z,13.72
2019-03-17T23:51:24.086Z,16.90
2019-03-17T23:53:54.308Z,17.15
2019-03-17T23:56:24.631Z,17.25
2019-03-17T23:58:55.162Z,17.37
